createdAt,value
2018-04-25T00:01:22.258Z,58.87
2018-04-25T00:03:48.319Z,59.12
2018-04-25T00:06:14.281Z,58.41
2018-04-25T00:08:40.183Z,59.26
2018-04-25T00:11:06.279Z,59.12
2018-04-25T00:13:32.220Z,58.89
2018-04-25T00:15:58.197Z,59.58
2018-04-25T00:18:24.133Z,59.01
2018-04-25T00:20:50.112Z,59.28
2018-04-25T00:23:16.080Z,58.96
2018-04-25T00:25:42.024Z,59.13
2018-04-25T00:28:07.983Z,58.45
2018-04-25T00:30:33.942Z,57.72
2018-04-25T00:32:59.895Z,58.84
2018-04-25T00:35:25.832Z,58.83
2018-04-25T00:37:51.771Z,58.68
2018-04-25T00:40:17.708Z,58.42
2018-04-25T00:42:43.651Z,57.93
2018-04-25T00:45:09.590Z,58.22
2018-04-25T00:47:35.556Z,58.01
2018-04-25T00:50:01.533Z,58.78
2018-04-25T00:52:27.475Z,58.57
2018-04-25T00:54:53.516Z,58.23
2018-04-25T00:57:19.468Z,59.05
2018-04-25T00:59:45.411Z,58.84
2018-04-25T01:02:11.445Z,59.63
2018-04-25T01:04:37.328Z,59.10
2018-04-25T01:07:03.263Z,58.70
2018-04-25T01:09:29.309Z,57.77
2018-04-25T01:11:55.349Z,59.16
2018-04-25T01:14:21.196Z,58.02
2018-04-25T01:16:47.176Z,58.18
2018-04-25T01:19:13.128Z,58.21
2018-04-25T01:21:39.123Z,58.01
2018-04-25T01:24:05.069Z,58.06
2018-04-25T01:26:31.020Z,58.15
2018-04-25T01:28:56.965Z,58.28
2018-04-25T01:31:22.912Z,58.46
2018-04-25T01:33:48.844Z,58.28
2018-04-25T01:36:14.793Z,58.36
2018-04-25T01:38:40.744Z,57.88
2018-04-25T01:41:06.680Z,58.14
2018-04-25T01:43:32.634Z,57.32
2018-04-25T01:45:58.528Z,59.36
2018-04-25T01:48:24.496Z,58.18
2018-04-25T01:50:50.444Z,59.02
2018-04-25T01:53:16.383Z,58.50
2018-04-25T01:55:42.391Z,58.64
2018-04-25T01:58:08.389Z,58.55
2018-04-25T02:00:34.316Z,58.40
2018-04-25T02:03:00.268Z,58.58
2018-04-25T02:05:26.212Z,58.44
2018-04-25T02:07:52.148Z,58.94
2018-04-25T02:10:18.089Z,59.42
2018-04-25T02:12:44.104Z,58.49
2018-04-25T02:15:10.048Z,58.38
2018-04-25T02:17:35.992Z,58.50
2018-04-25T02:20:01.933Z,58.64
2018-04-25T02:22:27.880Z,58.01
2018-04-25T02:24:53.824Z,58.51
2018-04-25T02:27:19.759Z,58.44
2018-04-25T02:29:45.732Z,58.82
2018-04-25T02:32:11.686Z,58.26
2018-04-25T02:34:37.655Z,58.94
2018-04-25T02:37:03.597Z,59.10
2018-04-25T02:39:29.552Z,59.23
2018-04-25T02:41:55.508Z,58.85
2018-04-25T02:44:21.440Z,58.47
2018-04-25T02:46:47.472Z,58.54
2018-04-25T02:49:13.422Z,58.86
2018-04-25T02:51:39.386Z,58.83
2018-04-25T02:54:05.323Z,58.54
2018-04-25T02:56:31.288Z,58.64
2018-04-25T02:58:57.318Z,58.75
2018-04-25T03:01:23.209Z,58.58
2018-04-25T03:03:49.165Z,58.68
2018-04-25T03:06:15.136Z,58.72
2018-04-25T03:08:41.068Z,58.41
2018-04-25T03:11:07.024Z,58.56
2018-04-25T03:13:32.975Z,58.44
2018-04-25T03:15:58.913Z,59.13
2018-04-25T03:18:24.853Z,58.59
2018-04-25T03:20:50.803Z,59.25
2018-04-25T03:23:16.751Z,58.73
2018-04-25T03:25:42.695Z,58.99
2018-04-25T03:28:08.644Z,58.91
2018-04-25T03:30:34.615Z,59.08
2018-04-25T03:33:00.552Z,59.15
2018-04-25T03:35:26.499Z,58.91
2018-04-25T03:37:52.448Z,58.52
2018-04-25T03:40:18.411Z,58.66
2018-04-25T03:42:44.351Z,58.68
2018-04-25T03:45:10.312Z,58.50
2018-04-25T03:47:36.256Z,58.31
2018-04-25T03:50:02.260Z,58.12
2018-04-25T03:52:28.208Z,58.45
2018-04-25T03:57:26.336Z,58.43
2018-04-25T03:59:52.295Z,58.46
2018-04-25T04:02:18.260Z,58.53
2018-04-25T04:04:44.288Z,58.93
2018-04-25T04:07:10.248Z,58.63
2018-04-25T04:09:36.209Z,59.24
2018-04-25T04:12:02.188Z,59.35
2018-04-25T04:14:28.135Z,59.32
2018-04-25T04:16:54.106Z,58.73
2018-04-25T04:19:20.054Z,58.16
2018-04-25T04:21:46.011Z,59.67
2018-04-25T04:24:11.960Z,57.95
2018-04-25T04:26:37.899Z,58.74
2018-04-25T04:29:03.875Z,57.89
2018-04-25T04:31:29.815Z,58.41
2018-04-25T04:33:55.761Z,58.71
2018-04-25T04:36:21.738Z,58.40
2018-04-25T04:38:47.686Z,58.50
2018-04-25T04:41:13.644Z,58.95
2018-04-25T04:43:39.585Z,58.30
2018-04-25T04:46:05.552Z,58.35
2018-04-25T04:48:31.512Z,58.23
2018-04-25T04:50:57.454Z,59.12
2018-04-25T04:53:23.417Z,58.10
2018-04-25T04:55:49.360Z,58.98
2018-04-25T04:58:15.322Z,59.63
2018-04-25T05:00:41.271Z,59.51
2018-04-25T05:03:07.220Z,58.49
2018-04-25T05:05:33.158Z,58.77
2018-04-25T05:07:59.118Z,58.31
2018-04-25T05:10:25.062Z,58.76
2018-04-25T05:12:51.016Z,57.83
2018-04-25T05:15:17.008Z,58.83
2018-04-25T05:17:42.943Z,58.71
2018-04-25T05:20:08.896Z,58.85
2018-04-25T05:22:34.858Z,58.52
2018-04-25T05:25:00.892Z,58.56
2018-04-25T05:27:26.847Z,58.54
2018-04-25T05:29:52.888Z,58.62
2018-04-25T05:32:18.836Z,58.54
2018-04-25T05:34:44.775Z,58.34
2018-04-25T05:37:10.732Z,58.63
2018-04-25T05:39:36.671Z,58.19
2018-04-25T05:42:02.633Z,58.64
2018-04-25T05:44:28.632Z,58.92
2018-04-25T05:46:54.600Z,59.53
2018-04-25T05:49:20.537Z,59.19
2018-04-25T05:51:46.489Z,59.27
2018-04-25T05:54:12.431Z,58.46
2018-04-25T05:56:38.397Z,58.42
2018-04-25T05:59:04.354Z,58.67
2018-04-25T06:01:30.296Z,58.43
2018-04-25T06:03:56.261Z,58.42
2018-04-25T06:06:22.212Z,59.14
2018-04-25T06:08:48.168Z,58.10
2018-04-25T06:11:14.111Z,58.41
2018-04-25T06:13:40.076Z,58.66
2018-04-25T06:16:06.025Z,58.10
2018-04-25T06:18:31.971Z,58.77
2018-04-25T06:20:57.912Z,58.76
2018-04-25T06:23:23.856Z,57.95
2018-04-25T06:25:49.811Z,58.70
2018-04-25T06:28:15.767Z,59.13
2018-04-25T06:30:41.728Z,58.95
2018-04-25T06:33:07.672Z,58.95
2018-04-25T06:35:33.634Z,59.34
2018-04-25T06:37:59.580Z,59.11
2018-04-25T06:40:25.516Z,59.08
2018-04-25T06:42:51.475Z,58.80
2018-04-25T06:45:17.460Z,59.13
2018-04-25T06:47:43.431Z,58.60
2018-04-25T06:50:09.362Z,58.69
2018-04-25T06:52:35.316Z,59.00
2018-04-25T06:55:01.260Z,59.06
2018-04-25T06:57:27.211Z,58.80
2018-04-25T06:59:53.158Z,58.29
2018-04-25T07:02:20.204Z,58.63
2018-04-25T07:04:46.247Z,58.80
2018-04-25T07:07:12.187Z,58.48
2018-04-25T07:09:38.136Z,58.89
2018-04-25T07:12:04.091Z,58.90
2018-04-25T07:14:30.044Z,58.94
2018-04-25T07:16:56.054Z,59.43
2018-04-25T07:19:21.996Z,59.57
2018-04-25T07:21:48.048Z,59.07
2018-04-25T07:24:13.997Z,59.08
2018-04-25T07:26:39.937Z,59.97
2018-04-25T07:29:05.901Z,58.98
2018-04-25T07:31:31.844Z,58.86
2018-04-25T07:33:57.805Z,58.45
2018-04-25T07:36:23.739Z,58.64
2018-04-25T07:38:49.809Z,58.35
2018-04-25T07:41:15.748Z,58.53
2018-04-25T07:43:41.704Z,58.31
2018-04-25T07:46:07.652Z,59.02
2018-04-25T07:48:33.604Z,58.89
2018-04-25T07:50:59.540Z,59.37
2018-04-25T07:53:25.483Z,59.10
2018-04-25T07:55:51.429Z,58.97
2018-04-25T07:58:17.380Z,58.89
2018-04-25T08:00:43.331Z,59.13
2018-04-25T08:03:09.295Z,58.99
2018-04-25T08:05:35.271Z,59.52
2018-04-25T08:08:01.232Z,59.25
2018-04-25T08:10:27.199Z,58.94
2018-04-25T08:12:53.200Z,58.80
2018-04-25T08:15:19.139Z,59.03
2018-04-25T08:17:45.181Z,58.42
2018-04-25T08:20:11.129Z,58.35
2018-04-25T08:22:37.067Z,59.46
2018-04-25T08:25:03.020Z,59.11
2018-04-25T08:27:29.032Z,59.18
2018-04-25T08:29:54.966Z,58.37
2018-04-25T08:32:20.976Z,59.28
2018-04-25T08:34:46.984Z,58.99
2018-04-25T08:37:12.924Z,59.22
2018-04-25T08:39:38.874Z,59.05
2018-04-25T08:42:04.823Z,59.31
2018-04-25T08:44:30.786Z,59.41
2018-04-25T08:46:56.732Z,59.00
2018-04-25T08:49:22.755Z,58.65
2018-04-25T08:51:48.693Z,58.15
2018-04-25T08:54:14.639Z,58.87
2018-04-25T08:56:40.596Z,57.86
2018-04-25T08:59:06.553Z,58.34
2018-04-25T09:01:32.490Z,57.45
2018-04-25T09:03:58.444Z,57.85
2018-04-25T09:06:24.411Z,57.70
2018-04-25T09:08:50.393Z,57.88
2018-04-25T09:11:16.336Z,58.13
2018-04-25T09:13:42.329Z,58.33
2018-04-25T09:16:08.298Z,57.39
2018-04-25T09:18:34.261Z,57.70
2018-04-25T09:21:00.225Z,57.75
2018-04-25T09:23:26.176Z,57.28
2018-04-25T09:25:52.136Z,57.69
2018-04-25T09:28:18.359Z,57.51
2018-04-25T09:30:44.308Z,57.29
2018-04-25T09:33:10.249Z,57.37
2018-04-25T09:35:36.236Z,57.51
2018-04-25T09:38:02.221Z,57.40
2018-04-25T09:40:28.180Z,57.03
2018-04-25T09:42:54.153Z,57.05
2018-04-25T09:45:20.073Z,57.04
2018-04-25T09:47:46.025Z,57.55
2018-04-25T09:50:11.999Z,58.91
2018-04-25T09:52:37.929Z,57.72
2018-04-25T09:55:03.884Z,58.93
2018-04-25T09:57:29.906Z,56.98
2018-04-25T09:59:55.812Z,57.98
2018-04-25T10:02:21.980Z,57.50
2018-04-25T10:04:48.029Z,57.57
2018-04-25T10:07:13.989Z,57.60
2018-04-25T10:09:39.957Z,57.57
2018-04-25T10:12:06.096Z,58.00
2018-04-25T10:14:32.032Z,57.64
2018-04-25T10:16:58.057Z,57.65
2018-04-25T10:19:23.929Z,57.51
2018-04-25T10:21:49.892Z,57.02
2018-04-25T10:24:15.842Z,57.25
2018-04-25T10:26:41.783Z,56.93
2018-04-25T10:29:07.720Z,56.97
2018-04-25T10:31:33.690Z,57.11
2018-04-25T10:33:59.720Z,56.79
2018-04-25T10:36:25.668Z,56.59
2018-04-25T10:38:51.615Z,56.73
2018-04-25T10:41:17.561Z,57.50
2018-04-25T10:43:43.534Z,56.92
2018-04-25T10:46:09.484Z,57.06
2018-04-25T10:48:35.445Z,56.86
2018-04-25T10:51:01.408Z,57.01
2018-04-25T10:53:27.364Z,58.34
2018-04-25T10:55:53.308Z,58.10
2018-04-25T10:58:19.247Z,57.64
2018-04-25T11:00:45.208Z,55.01
2018-04-25T11:03:11.165Z,56.33
2018-04-25T11:05:37.100Z,54.57
2018-04-25T11:08:03.125Z,55.82
2018-04-25T11:10:29.080Z,56.03
2018-04-25T11:12:55.042Z,56.38
2018-04-25T11:15:20.988Z,55.87
2018-04-25T11:17:46.934Z,57.23
2018-04-25T11:20:12.882Z,58.04
2018-04-25T11:22:38.828Z,57.83
2018-04-25T11:25:04.768Z,58.75
2018-04-25T11:27:30.737Z,57.80
2018-04-25T11:29:56.689Z,58.35
2018-04-25T11:32:22.649Z,58.56
2018-04-25T11:34:48.590Z,58.85
2018-04-25T11:37:14.549Z,58.01
2018-04-25T11:39:40.501Z,57.71
2018-04-25T11:42:06.463Z,58.68
2018-04-25T11:44:32.431Z,58.57
2018-04-25T11:46:58.484Z,58.52
2018-04-25T11:49:24.428Z,58.79
2018-04-25T11:51:50.367Z,58.21
2018-04-25T11:54:16.328Z,58.71
2018-04-25T11:56:42.260Z,58.67
2018-04-25T11:59:08.252Z,58.53
2018-04-25T12:01:34.193Z,58.59
2018-04-25T12:04:00.153Z,58.91
2018-04-25T12:06:26.233Z,58.98
2018-04-25T12:08:52.187Z,58.37
2018-04-25T12:11:18.124Z,58.13
2018-04-25T12:13:44.144Z,58.26
2018-04-25T12:16:10.100Z,58.08
2018-04-25T12:18:36.053Z,58.84
2018-04-25T12:21:01.999Z,58.10
2018-04-25T12:23:27.951Z,58.95
2018-04-25T12:25:53.890Z,58.61
2018-04-25T12:28:19.878Z,59.08
2018-04-25T12:30:45.806Z,59.19
2018-04-25T12:33:11.781Z,58.63
2018-04-25T12:35:37.740Z,57.82
2018-04-25T12:38:03.728Z,57.52
2018-04-25T12:40:29.676Z,57.26
2018-04-25T12:42:55.628Z,56.71
2018-04-25T12:45:21.570Z,57.00
2018-04-25T12:47:47.531Z,56.88
2018-04-25T12:50:13.479Z,56.95
2018-04-25T12:52:39.434Z,57.03
2018-04-25T12:55:05.367Z,57.66
2018-04-25T12:57:31.333Z,56.38
2018-04-25T12:59:57.298Z,56.42
2018-04-25T13:02:23.304Z,56.11
2018-04-25T13:04:49.253Z,55.15
2018-04-25T13:07:15.220Z,56.30
2018-04-25T13:09:41.184Z,55.83
2018-04-25T13:12:07.149Z,56.76
2018-04-25T13:14:33.108Z,56.01
2018-04-25T13:16:59.067Z,59.16
2018-04-25T13:19:25.015Z,58.57
2018-04-25T13:21:50.967Z,56.74
2018-04-25T13:24:16.926Z,56.40
2018-04-25T13:26:42.861Z,56.17
2018-04-25T13:29:08.915Z,53.94
2018-04-25T13:31:34.851Z,52.39
2018-04-25T13:34:00.792Z,56.80
2018-04-25T13:36:26.753Z,51.94
2018-04-25T13:38:52.707Z,50.91
2018-04-25T13:41:18.652Z,50.50
2018-04-25T13:43:44.612Z,49.98
2018-04-25T13:46:10.585Z,52.71
2018-04-25T13:48:36.624Z,49.16
2018-04-25T13:51:02.520Z,49.73
2018-04-25T13:53:28.511Z,48.86
2018-04-25T13:55:54.472Z,49.56
2018-04-25T13:58:20.469Z,50.54
2018-04-25T14:00:46.499Z,49.95
2018-04-25T14:03:12.386Z,48.73
2018-04-25T14:05:38.325Z,49.10
2018-04-25T14:08:04.291Z,49.34
2018-04-25T14:10:30.243Z,49.09
2018-04-25T14:12:56.216Z,48.66
2018-04-25T14:15:22.136Z,48.08
2018-04-25T14:17:48.088Z,47.77
2018-04-25T14:20:14.060Z,48.18
2018-04-25T14:22:40.019Z,48.65
2018-04-25T14:25:05.992Z,47.65
2018-04-25T14:27:31.948Z,48.24
2018-04-25T14:29:57.914Z,47.24
2018-04-25T14:32:23.869Z,47.34
2018-04-25T14:34:49.832Z,48.13
2018-04-25T14:37:15.796Z,47.21
2018-04-25T14:39:41.746Z,47.53
2018-04-25T14:42:07.727Z,47.15
2018-04-25T14:44:33.664Z,47.11
2018-04-25T14:46:59.661Z,46.24
2018-04-25T14:49:25.608Z,47.46
2018-04-25T14:51:51.548Z,46.94
2018-04-25T14:54:17.500Z,49.54
2018-04-25T14:56:43.457Z,46.98
2018-04-25T14:59:09.432Z,47.14
2018-04-25T15:01:35.458Z,49.29
2018-04-25T15:04:01.400Z,48.02
2018-04-25T15:06:27.340Z,47.74
2018-04-25T15:08:53.311Z,47.48
2018-04-25T15:11:19.255Z,46.77
2018-04-25T15:13:45.207Z,47.33
2018-04-25T15:16:11.227Z,47.58
2018-04-25T15:18:37.172Z,47.29
2018-04-25T15:21:03.120Z,46.56
2018-04-25T15:23:29.088Z,46.86
2018-04-25T15:25:55.033Z,50.58
2018-04-25T15:28:21.047Z,46.81
2018-04-25T15:30:47.006Z,46.86
2018-04-25T15:33:13.001Z,46.99
2018-04-25T15:35:38.967Z,46.13
2018-04-25T15:38:04.916Z,46.32
2018-04-25T15:40:30.876Z,46.37
2018-04-25T15:42:56.831Z,46.15
2018-04-25T15:45:22.784Z,46.18
2018-04-25T15:47:48.720Z,45.98
2018-04-25T15:50:14.700Z,46.48
2018-04-25T15:52:40.676Z,45.49
2018-04-25T15:55:06.623Z,45.97
2018-04-25T15:57:32.564Z,45.55
2018-04-25T15:59:58.521Z,45.79
2018-04-25T16:02:24.568Z,45.64
2018-04-25T16:04:50.543Z,47.90
2018-04-25T16:07:16.506Z,46.50
2018-04-25T16:09:42.464Z,45.88
2018-04-25T16:12:08.487Z,45.80
2018-04-25T16:14:34.388Z,45.59
2018-04-25T16:17:00.372Z,45.27
2018-04-25T16:19:26.332Z,44.88
2018-04-25T16:21:52.285Z,45.29
2018-04-25T16:24:18.240Z,45.28
2018-04-25T16:26:44.188Z,45.60
2018-04-25T16:29:10.152Z,45.52
2018-04-25T16:31:36.115Z,44.92
2018-04-25T16:34:02.092Z,44.95
2018-04-25T16:36:28.056Z,45.12
2018-04-25T16:38:54.028Z,45.17
2018-04-25T16:41:19.991Z,45.76
2018-04-25T16:43:45.940Z,44.49
2018-04-25T16:46:11.881Z,45.13
2018-04-25T16:48:37.860Z,45.22
2018-04-25T16:51:03.800Z,44.87
2018-04-25T16:53:29.764Z,45.74
2018-04-25T16:55:55.723Z,45.12
2018-04-25T16:58:21.713Z,45.06
2018-04-25T17:00:47.663Z,45.42
2018-04-25T17:03:13.631Z,45.13
2018-04-25T17:05:39.589Z,44.73
2018-04-25T17:08:05.548Z,44.71
2018-04-25T17:10:31.491Z,44.74
2018-04-25T17:12:57.453Z,45.24
2018-04-25T17:15:23.399Z,44.54
2018-04-25T17:17:49.352Z,45.33
2018-04-25T17:20:15.320Z,45.30
2018-04-25T17:22:41.288Z,44.75
2018-04-25T17:25:07.266Z,44.99
2018-04-25T17:27:33.322Z,44.59
2018-04-25T17:29:59.273Z,44.80
2018-04-25T17:32:25.229Z,44.72
2018-04-25T17:34:51.205Z,44.31
2018-04-25T17:37:17.158Z,44.47
2018-04-25T17:39:43.100Z,44.69
2018-04-25T17:42:09.052Z,44.32
2018-04-25T17:44:35.030Z,45.35
2018-04-25T17:47:00.990Z,44.12
2018-04-25T17:49:26.952Z,44.20
2018-04-25T17:51:52.905Z,45.12
2018-04-25T17:54:18.843Z,43.75
2018-04-25T17:56:44.791Z,43.66
2018-04-25T17:59:10.760Z,43.97
2018-04-25T18:01:36.721Z,43.97
2018-04-25T18:04:02.744Z,43.78
2018-04-25T18:06:28.705Z,44.64
2018-04-25T18:08:54.716Z,43.98
2018-04-25T18:11:20.668Z,44.08
2018-04-25T18:13:46.613Z,43.40
2018-04-25T18:16:12.664Z,43.21
2018-04-25T18:18:38.640Z,43.64
2018-04-25T18:21:04.584Z,44.13
2018-04-25T18:23:30.573Z,43.50
2018-04-25T18:25:56.551Z,43.82
2018-04-25T18:28:22.503Z,43.49
2018-04-25T18:30:48.459Z,43.97
2018-04-25T18:33:14.412Z,44.20
2018-04-25T18:35:40.386Z,44.51
2018-04-25T18:38:06.324Z,44.19
2018-04-25T18:40:32.296Z,44.27
2018-04-25T18:42:58.249Z,44.44
2018-04-25T18:45:24.204Z,45.62
2018-04-25T18:47:50.141Z,48.08
2018-04-25T18:50:16.095Z,46.43
2018-04-25T18:52:42.089Z,47.09
2018-04-25T18:55:08.068Z,46.67
2018-04-25T18:57:34.044Z,47.19
2018-04-25T19:00:00.000Z,47.45
2018-04-25T19:02:25.969Z,47.73
2018-04-25T19:04:51.912Z,47.84
2018-04-25T19:07:17.899Z,48.53
2018-04-25T19:09:43.863Z,48.55
2018-04-25T19:12:09.840Z,48.05
2018-04-25T19:14:35.786Z,48.36
2018-04-25T19:17:01.726Z,49.30
2018-04-25T19:19:27.644Z,48.81
2018-04-25T19:21:53.578Z,49.28
2018-04-25T19:24:19.633Z,48.98
2018-04-25T19:26:45.581Z,49.08
2018-04-25T19:29:11.539Z,49.54
2018-04-25T19:31:37.513Z,49.17
2018-04-25T19:34:03.503Z,49.04
2018-04-25T19:36:29.460Z,49.62
2018-04-25T19:38:55.507Z,49.80
2018-04-25T19:41:21.449Z,49.74
2018-04-25T19:43:47.404Z,49.46
2018-04-25T19:46:13.349Z,49.87
2018-04-25T19:48:39.294Z,49.85
2018-04-25T19:51:05.244Z,50.05
2018-04-25T19:53:31.207Z,49.88
2018-04-25T19:55:57.159Z,49.80
2018-04-25T19:58:23.099Z,50.14
2018-04-25T20:00:49.049Z,50.54
2018-04-25T20:03:15.092Z,50.59
2018-04-25T20:05:41.053Z,50.66
2018-04-25T20:08:07.002Z,50.50
2018-04-25T20:10:32.977Z,50.76
2018-04-25T20:12:58.945Z,51.09
2018-04-25T20:15:24.939Z,50.88
2018-04-25T20:17:50.952Z,50.42
2018-04-25T20:20:16.980Z,51.05
2018-04-25T20:22:42.905Z,51.42
2018-04-25T20:25:08.906Z,50.86
2018-04-25T20:27:34.867Z,50.90
2018-04-25T20:30:00.816Z,51.09
2018-04-25T20:32:26.765Z,51.16
2018-04-25T20:34:52.700Z,50.92
2018-04-25T20:37:18.664Z,51.54
2018-04-25T20:39:44.599Z,50.96
2018-04-25T20:42:10.587Z,51.15
2018-04-25T20:44:36.550Z,51.44
2018-04-25T20:47:02.512Z,51.92
2018-04-25T20:49:28.456Z,54.06
2018-04-25T20:51:54.419Z,51.42
2018-04-25T20:54:20.400Z,51.73
2018-04-25T20:56:46.374Z,51.40
2018-04-25T20:59:12.339Z,51.72
2018-04-25T21:01:38.288Z,51.46
2018-04-25T21:04:04.292Z,51.93
2018-04-25T21:06:30.292Z,51.55
2018-04-25T21:08:56.224Z,51.90
2018-04-25T21:11:22.177Z,51.91
2018-04-25T21:13:48.118Z,51.67
2018-04-25T21:16:14.057Z,51.99
2018-04-25T21:18:40.008Z,51.93
2018-04-25T21:21:06.280Z,52.30
2018-04-25T21:23:32.249Z,51.83
2018-04-25T21:25:58.208Z,51.84
2018-04-25T21:28:24.169Z,51.80
2018-04-25T21:30:50.124Z,52.28
2018-04-25T21:33:16.081Z,52.47
2018-04-25T21:35:42.029Z,52.04
2018-04-25T21:38:07.972Z,52.10
2018-04-25T21:40:33.916Z,52.08
2018-04-25T21:42:59.873Z,52.70
2018-04-25T21:45:25.838Z,53.90
2018-04-25T21:47:51.784Z,54.75
2018-04-25T21:50:17.719Z,52.04
2018-04-25T21:52:43.667Z,52.70
2018-04-25T21:55:09.630Z,52.44
2018-04-25T21:57:35.592Z,52.39
2018-04-25T22:00:01.545Z,52.58
2018-04-25T22:02:27.501Z,52.18
2018-04-25T22:04:53.465Z,52.21
2018-04-25T22:07:19.524Z,52.30
2018-04-25T22:09:45.504Z,52.20
2018-04-25T22:12:11.466Z,52.24
2018-04-25T22:14:37.440Z,52.45
2018-04-25T22:17:03.422Z,52.66
2018-04-25T22:19:29.385Z,52.45
2018-04-25T22:21:55.328Z,52.34
2018-04-25T22:24:21.291Z,52.30
2018-04-25T22:26:47.249Z,52.51
2018-04-25T22:29:13.228Z,52.06
2018-04-25T22:31:39.197Z,52.18
2018-04-25T22:34:05.179Z,52.21
2018-04-25T22:36:31.249Z,52.02
2018-04-25T22:38:57.260Z,52.50
2018-04-25T22:41:23.228Z,51.99
2018-04-25T22:43:49.231Z,52.21
2018-04-25T22:46:15.403Z,52.29
2018-04-25T22:48:41.387Z,52.38
2018-04-25T22:51:07.414Z,52.37
2018-04-25T22:53:33.396Z,52.38
2018-04-25T22:55:59.361Z,52.27
2018-04-25T22:58:25.399Z,52.38
2018-04-25T23:00:51.391Z,51.98
2018-04-25T23:03:17.567Z,53.02
2018-04-25T23:05:43.587Z,51.96
2018-04-25T23:08:09.604Z,52.32
2018-04-25T23:10:35.614Z,52.05
2018-04-25T23:13:01.672Z,52.72
2018-04-25T23:15:27.689Z,52.11
2018-04-25T23:17:53.678Z,52.16
2018-04-25T23:20:19.646Z,52.71
2018-04-25T23:22:45.666Z,52.45
2018-04-25T23:25:11.696Z,52.93
2018-04-25T23:27:37.676Z,52.27
2018-04-25T23:30:03.697Z,52.27
2018-04-25T23:32:29.670Z,52.16
2018-04-25T23:34:55.643Z,52.31
2018-04-25T23:37:21.704Z,52.35
2018-04-25T23:39:47.664Z,52.04
2018-04-25T23:42:13.840Z,52.92
2018-04-25T23:44:39.792Z,52.19
2018-04-25T23:47:05.757Z,52.22
2018-04-25T23:49:31.706Z,52.22
2018-04-25T23:51:57.656Z,52.26
2018-04-25T23:54:23.604Z,51.76
2018-04-25T23:56:49.548Z,52.08
2018-04-25T23:59:15.493Z,52.42
